sensor_id;sensor_type;location;lat;lon;timestamp;P1;durP1;ratioP1;P2;durP2;ratioP2
47625;SDS011;33342;45.574;9.252;2023-07-13T00:00:56;11.55;;;4.35;;
47625;SDS011;33342;45.574;9.252;2023-07-13T00:03:23;12.00;;;4.43;;
47625;SDS011;33342;45.574;9.252;2023-07-13T00:05:57;10.57;;;4.80;;
47625;SDS011;33342;45.574;9.252;2023-07-13T00:08:26;10.23;;;4.13;;
47625;SDS011;33342;45.574;9.252;2023-07-13T00:10:53;11.57;;;4.70;;
47625;SDS011;33342;45.574;9.252;2023-07-13T00:13:21;8.70;;;4.07;;
47625;SDS011;33342;45.574;9.252;2023-07-13T00:15:48;8.88;;;4.32;;
47625;SDS011;33342;45.574;9.252;2023-07-13T00:18:15;8.52;;;4.15;;
47625;SDS011;33342;45.574;9.252;2023-07-13T00:20:42;10.40;;;4.85;;
47625;SDS011;33342;45.574;9.252;2023-07-13T00:23:10;7.10;;;3.88;;
47625;SDS011;33342;45.574;9.252;2023-07-13T00:25:37;8.00;;;4.22;;
47625;SDS011;33342;45.574;9.252;2023-07-13T00:28:04;8.95;;;4.10;;
47625;SDS011;33342;45.574;9.252;2023-07-13T00:30:31;7.05;;;3.72;;
47625;SDS011;33342;45.574;9.252;2023-07-13T00:32:58;7.47;;;3.90;;
47625;SDS011;33342;45.574;9.252;2023-07-13T00:35:43;9.52;;;4.38;;
47625;SDS011;33342;45.574;9.252;2023-07-13T00:38:11;9.85;;;4.35;;
47625;SDS011;33342;45.574;9.252;2023-07-13T00:40:39;7.53;;;4.03;;
47625;SDS011;33342;45.574;9.252;2023-07-13T00:43:15;7.88;;;3.92;;
47625;SDS011;33342;45.574;9.252;2023-07-13T00:48:12;10.73;;;5.22;;
47625;SDS011;33342;45.574;9.252;2023-07-13T00:50:44;7.38;;;3.90;;
47625;SDS011;33342;45.574;9.252;2023-07-13T00:53:14;10.60;;;4.70;;
47625;SDS011;33342;45.574;9.252;2023-07-13T00:55:41;8.95;;;4.10;;
47625;SDS011;33342;45.574;9.252;2023-07-13T00:58:09;10.02;;;4.32;;
47625;SDS011;33342;45.574;9.252;2023-07-13T01:00:37;7.82;;;4.15;;
47625;SDS011;33342;45.574;9.252;2023-07-13T01:03:05;7.78;;;4.10;;
47625;SDS011;33342;45.574;9.252;2023-07-13T01:05:33;10.07;;;4.18;;
47625;SDS011;33342;45.574;9.252;2023-07-13T01:08:02;8.13;;;4.07;;
47625;SDS011;33342;45.574;9.252;2023-07-13T01:10:33;8.35;;;4.07;;
47625;SDS011;33342;45.574;9.252;2023-07-13T01:13:06;10.98;;;3.92;;
47625;SDS011;33342;45.574;9.252;2023-07-13T01:15:42;7.05;;;3.78;;
47625;SDS011;33342;45.574;9.252;2023-07-13T01:18:16;7.35;;;4.25;;
47625;SDS011;33342;45.574;9.252;2023-07-13T01:21:04;9.93;;;4.65;;
47625;SDS011;33342;45.574;9.252;2023-07-13T01:23:31;9.45;;;4.40;;
47625;SDS011;33342;45.574;9.252;2023-07-13T01:25:59;8.90;;;4.10;;
47625;SDS011;33342;45.574;9.252;2023-07-13T01:28:27;9.55;;;4.20;;
47625;SDS011;33342;45.574;9.252;2023-07-13T01:30:56;7.78;;;4.15;;
47625;SDS011;33342;45.574;9.252;2023-07-13T01:33:25;8.15;;;4.18;;
47625;SDS011;33342;45.574;9.252;2023-07-13T01:35:52;9.48;;;3.67;;
47625;SDS011;33342;45.574;9.252;2023-07-13T01:38:20;8.82;;;4.07;;
47625;SDS011;33342;45.574;9.252;2023-07-13T01:40:50;7.82;;;3.75;;
47625;SDS011;33342;45.574;9.252;2023-07-13T01:43:18;11.18;;;4.53;;
47625;SDS011;33342;45.574;9.252;2023-07-13T01:45:46;11.15;;;4.13;;
47625;SDS011;33342;45.574;9.252;2023-07-13T01:48:13;8.18;;;4.15;;
47625;SDS011;33342;45.574;9.252;2023-07-13T01:50:41;7.40;;;4.18;;
47625;SDS011;33342;45.574;9.252;2023-07-13T01:53:08;7.72;;;4.07;;
47625;SDS011;33342;45.574;9.252;2023-07-13T01:55:37;9.32;;;3.88;;
47625;SDS011;33342;45.574;9.252;2023-07-13T01:58:04;7.80;;;4.22;;
47625;SDS011;33342;45.574;9.252;2023-07-13T02:00:32;10.10;;;3.83;;
47625;SDS011;33342;45.574;9.252;2023-07-13T02:03:01;7.75;;;4.00;;
47625;SDS011;33342;45.574;9.252;2023-07-13T02:05:31;8.82;;;4.13;;
47625;SDS011;33342;45.574;9.252;2023-07-13T02:07:58;7.47;;;4.13;;
47625;SDS011;33342;45.574;9.252;2023-07-13T02:10:25;8.35;;;4.45;;
47625;SDS011;33342;45.574;9.252;2023-07-13T02:12:52;7.57;;;4.47;;
47625;SDS011;33342;45.574;9.252;2023-07-13T02:15:20;8.82;;;4.15;;
47625;SDS011;33342;45.574;9.252;2023-07-13T02:17:47;11.32;;;4.90;;
47625;SDS011;33342;45.574;9.252;2023-07-13T02:20:14;8.63;;;3.90;;
47625;SDS011;33342;45.574;9.252;2023-07-13T02:22:41;9.00;;;3.90;;
47625;SDS011;33342;45.574;9.252;2023-07-13T02:25:09;8.77;;;4.28;;
47625;SDS011;33342;45.574;9.252;2023-07-13T02:27:36;8.95;;;4.30;;
47625;SDS011;33342;45.574;9.252;2023-07-13T02:30:04;9.77;;;3.67;;
47625;SDS011;33342;45.574;9.252;2023-07-13T02:32:31;8.48;;;3.83;;
47625;SDS011;33342;45.574;9.252;2023-07-13T02:34:59;8.00;;;3.80;;
47625;SDS011;33342;45.574;9.252;2023-07-13T02:37:28;10.48;;;4.05;;
47625;SDS011;33342;45.574;9.252;2023-07-13T02:39:56;8.82;;;3.90;;
47625;SDS011;33342;45.574;9.252;2023-07-13T02:42:23;12.52;;;4.05;;
47625;SDS011;33342;45.574;9.252;2023-07-13T02:44:50;9.85;;;4.13;;
47625;SDS011;33342;45.574;9.252;2023-07-13T02:47:18;9.45;;;4.05;;
47625;SDS011;33342;45.574;9.252;2023-07-13T02:49:45;9.20;;;4.30;;
47625;SDS011;33342;45.574;9.252;2023-07-13T02:52:12;8.70;;;4.20;;
47625;SDS011;33342;45.574;9.252;2023-07-13T02:54:39;12.35;;;4.20;;
47625;SDS011;33342;45.574;9.252;2023-07-13T02:57:06;8.00;;;4.00;;
47625;SDS011;33342;45.574;9.252;2023-07-13T02:59:33;9.25;;;3.97;;
47625;SDS011;33342;45.574;9.252;2023-07-13T03:02:01;7.70;;;4.07;;
47625;SDS011;33342;45.574;9.252;2023-07-13T03:04:29;8.00;;;3.70;;
47625;SDS011;33342;45.574;9.252;2023-07-13T03:06:57;8.75;;;3.78;;
47625;SDS011;33342;45.574;9.252;2023-07-13T03:09:31;9.70;;;4.30;;
47625;SDS011;33342;45.574;9.252;2023-07-13T03:12:00;8.10;;;4.50;;
47625;SDS011;33342;45.574;9.252;2023-07-13T03:14:30;14.70;;;5.00;;
47625;SDS011;33342;45.574;9.252;2023-07-13T03:16:59;7.90;;;4.55;;
47625;SDS011;33342;45.574;9.252;2023-07-13T03:19:30;8.07;;;4.43;;
47625;SDS011;33342;45.574;9.252;2023-07-13T03:21:57;12.32;;;4.80;;
47625;SDS011;33342;45.574;9.252;2023-07-13T03:24:24;9.50;;;4.55;;
47625;SDS011;33342;45.574;9.252;2023-07-13T03:26:52;10.40;;;4.88;;
47625;SDS011;33342;45.574;9.252;2023-07-13T03:29:19;8.15;;;4.80;;
47625;SDS011;33342;45.574;9.252;2023-07-13T03:31:47;8.07;;;4.63;;
47625;SDS011;33342;45.574;9.252;2023-07-13T03:34:14;9.80;;;4.80;;
47625;SDS011;33342;45.574;9.252;2023-07-13T03:36:41;8.90;;;5.15;;
47625;SDS011;33342;45.574;9.252;2023-07-13T03:39:11;8.05;;;5.10;;
47625;SDS011;33342;45.574;9.252;2023-07-13T03:41:53;13.40;;;5.05;;
47625;SDS011;33342;45.574;9.252;2023-07-13T03:44:22;7.57;;;4.63;;
47625;SDS011;33342;45.574;9.252;2023-07-13T03:46:53;11.02;;;5.70;;
47625;SDS011;33342;45.574;9.252;2023-07-13T03:49:20;9.23;;;5.57;;
47625;SDS011;33342;45.574;9.252;2023-07-13T03:51:48;9.57;;;5.40;;
47625;SDS011;33342;45.574;9.252;2023-07-13T03:54:19;9.82;;;5.63;;
47625;SDS011;33342;45.574;9.252;2023-07-13T03:56:46;11.70;;;5.85;;
47625;SDS011;33342;45.574;9.252;2023-07-13T03:59:15;10.30;;;5.50;;
47625;SDS011;33342;45.574;9.252;2023-07-13T04:01:43;10.82;;;5.68;;
47625;SDS011;33342;45.574;9.252;2023-07-13T04:04:11;12.10;;;5.35;;
47625;SDS011;33342;45.574;9.252;2023-07-13T04:06:39;14.50;;;5.78;;
47625;SDS011;33342;45.574;9.252;2023-07-13T04:09:06;9.18;;;5.63;;
47625;SDS011;33342;45.574;9.252;2023-07-13T04:11:33;9.48;;;5.28;;
47625;SDS011;33342;45.574;9.252;2023-07-13T04:14:03;8.40;;;5.05;;
47625;SDS011;33342;45.574;9.252;2023-07-13T04:16:32;11.32;;;5.95;;
47625;SDS011;33342;45.574;9.252;2023-07-13T04:19:00;10.57;;;5.95;;
47625;SDS011;33342;45.574;9.252;2023-07-13T04:21:28;10.43;;;5.70;;
47625;SDS011;33342;45.574;9.252;2023-07-13T04:23:57;11.93;;;5.60;;
47625;SDS011;33342;45.574;9.252;2023-07-13T04:26:24;11.88;;;6.22;;
47625;SDS011;33342;45.574;9.252;2023-07-13T04:28:52;13.77;;;5.82;;
47625;SDS011;33342;45.574;9.252;2023-07-13T04:31:19;9.18;;;6.28;;
47625;SDS011;33342;45.574;9.252;2023-07-13T04:33:47;11.88;;;7.00;;
47625;SDS011;33342;45.574;9.252;2023-07-13T04:36:15;11.38;;;6.95;;
47625;SDS011;33342;45.574;9.252;2023-07-13T04:38:43;12.60;;;6.50;;
47625;SDS011;33342;45.574;9.252;2023-07-13T04:41:10;12.75;;;6.55;;
47625;SDS011;33342;45.574;9.252;2023-07-13T04:43:39;12.48;;;7.10;;
47625;SDS011;33342;45.574;9.252;2023-07-13T04:46:07;12.63;;;6.80;;
47625;SDS011;33342;45.574;9.252;2023-07-13T04:48:37;12.45;;;6.15;;
47625;SDS011;33342;45.574;9.252;2023-07-13T04:51:04;10.82;;;6.38;;
47625;SDS011;33342;45.574;9.252;2023-07-13T04:53:32;10.90;;;6.32;;
47625;SDS011;33342;45.574;9.252;2023-07-13T04:56:01;9.50;;;6.68;;
47625;SDS011;33342;45.574;9.252;2023-07-13T04:58:29;11.75;;;6.68;;
47625;SDS011;33342;45.574;9.252;2023-07-13T05:01:00;11.50;;;6.13;;
47625;SDS011;33342;45.574;9.252;2023-07-13T05:03:29;14.63;;;7.13;;
47625;SDS011;33342;45.574;9.252;2023-07-13T05:06:06;10.68;;;6.65;;
47625;SDS011;33342;45.574;9.252;2023-07-13T05:08:36;11.07;;;6.05;;
47625;SDS011;33342;45.574;9.252;2023-07-13T05:11:04;10.50;;;6.80;;
47625;SDS011;33342;45.574;9.252;2023-07-13T05:13:32;11.80;;;6.18;;
47625;SDS011;33342;45.574;9.252;2023-07-13T05:16:00;12.45;;;6.95;;
47625;SDS011;33342;45.574;9.252;2023-07-13T05:18:30;13.88;;;6.63;;
47625;SDS011;33342;45.574;9.252;2023-07-13T05:20:58;12.32;;;7.00;;
47625;SDS011;33342;45.574;9.252;2023-07-13T05:23:26;10.57;;;6.72;;
47625;SDS011;33342;45.574;9.252;2023-07-13T05:25:54;11.77;;;6.18;;
47625;SDS011;33342;45.574;9.252;2023-07-13T05:28:22;10.68;;;6.35;;
47625;SDS011;33342;45.574;9.252;2023-07-13T05:30:49;12.52;;;6.40;;
47625;SDS011;33342;45.574;9.252;2023-07-13T05:33:17;10.35;;;5.50;;
47625;SDS011;33342;45.574;9.252;2023-07-13T05:35:44;9.88;;;5.63;;
47625;SDS011;33342;45.574;9.252;2023-07-13T05:38:11;12.70;;;5.50;;
47625;SDS011;33342;45.574;9.252;2023-07-13T05:40:38;10.85;;;5.25;;
47625;SDS011;33342;45.574;9.252;2023-07-13T05:43:06;9.90;;;4.55;;
47625;SDS011;33342;45.574;9.252;2023-07-13T05:45:33;7.95;;;3.63;;
47625;SDS011;33342;45.574;9.252;2023-07-13T05:48:00;8.82;;;3.97;;
47625;SDS011;33342;45.574;9.252;2023-07-13T05:50:27;7.57;;;3.70;;
47625;SDS011;33342;45.574;9.252;2023-07-13T05:52:54;7.82;;;3.92;;
47625;SDS011;33342;45.574;9.252;2023-07-13T05:55:23;9.90;;;4.43;;
47625;SDS011;33342;45.574;9.252;2023-07-13T05:57:50;7.63;;;4.13;;
47625;SDS011;33342;45.574;9.252;2023-07-13T06:00:18;7.68;;;4.00;;
47625;SDS011;33342;45.574;9.252;2023-07-13T06:02:45;8.57;;;3.67;;
47625;SDS011;33342;45.574;9.252;2023-07-13T06:05:12;7.13;;;3.22;;
47625;SDS011;33342;45.574;9.252;2023-07-13T06:07:40;6.97;;;3.50;;
47625;SDS011;33342;45.574;9.252;2023-07-13T06:10:08;7.40;;;3.30;;
47625;SDS011;33342;45.574;9.252;2023-07-13T06:12:36;8.40;;;3.08;;
47625;SDS011;33342;45.574;9.252;2023-07-13T06:15:03;7.95;;;3.17;;
47625;SDS011;33342;45.574;9.252;2023-07-13T06:17:31;6.80;;;2.90;;
47625;SDS011;33342;45.574;9.252;2023-07-13T06:19:58;6.72;;;2.90;;
47625;SDS011;33342;45.574;9.252;2023-07-13T06:22:25;8.55;;;3.15;;
47625;SDS011;33342;45.574;9.252;2023-07-13T06:24:52;8.65;;;2.83;;
47625;SDS011;33342;45.574;9.252;2023-07-13T06:27:19;6.38;;;2.85;;
47625;SDS011;33342;45.574;9.252;2023-07-13T06:29:47;7.95;;;2.95;;
47625;SDS011;33342;45.574;9.252;2023-07-13T06:32:14;5.95;;;2.92;;
47625;SDS011;33342;45.574;9.252;2023-07-13T06:34:41;10.30;;;3.53;;
47625;SDS011;33342;45.574;9.252;2023-07-13T06:37:09;7.88;;;3.20;;
47625;SDS011;33342;45.574;9.252;2023-07-13T06:39:36;8.68;;;3.00;;
47625;SDS011;33342;45.574;9.252;2023-07-13T06:42:04;8.45;;;2.95;;
47625;SDS011;33342;45.574;9.252;2023-07-13T06:44:32;6.60;;;2.88;;
47625;SDS011;33342;45.574;9.252;2023-07-13T06:46:59;8.57;;;2.70;;
47625;SDS011;33342;45.574;9.252;2023-07-13T06:49:27;8.38;;;3.00;;
47625;SDS011;33342;45.574;9.252;2023-07-13T06:51:54;10.85;;;3.80;;
47625;SDS011;33342;45.574;9.252;2023-07-13T06:54:21;7.97;;;3.47;;
47625;SDS011;33342;45.574;9.252;2023-07-13T06:56:48;8.55;;;4.13;;
47625;SDS011;33342;45.574;9.252;2023-07-13T06:59:15;10.32;;;3.55;;
47625;SDS011;33342;45.574;9.252;2023-07-13T07:01:43;6.22;;;3.70;;
47625;SDS011;33342;45.574;9.252;2023-07-13T07:04:10;8.95;;;3.60;;
47625;SDS011;33342;45.574;9.252;2023-07-13T07:06:37;13.63;;;3.53;;
47625;SDS011;33342;45.574;9.252;2023-07-13T07:09:04;11.70;;;3.55;;
47625;SDS011;33342;45.574;9.252;2023-07-13T07:11:31;7.53;;;3.45;;
47625;SDS011;33342;45.574;9.252;2023-07-13T07:13:59;8.57;;;3.25;;
47625;SDS011;33342;45.574;9.252;2023-07-13T07:16:26;6.35;;;3.72;;
47625;SDS011;33342;45.574;9.252;2023-07-13T07:18:53;8.27;;;3.58;;
47625;SDS011;33342;45.574;9.252;2023-07-13T07:21:20;8.05;;;3.25;;
47625;SDS011;33342;45.574;9.252;2023-07-13T07:23:49;8.00;;;3.22;;
47625;SDS011;33342;45.574;9.252;2023-07-13T07:26:18;7.43;;;3.20;;
47625;SDS011;33342;45.574;9.252;2023-07-13T07:28:49;6.07;;;3.05;;
47625;SDS011;33342;45.574;9.252;2023-07-13T07:31:36;7.20;;;2.80;;
47625;SDS011;33342;45.574;9.252;2023-07-13T07:34:06;6.88;;;2.63;;
47625;SDS011;33342;45.574;9.252;2023-07-13T07:36:34;5.38;;;2.83;;
47625;SDS011;33342;45.574;9.252;2023-07-13T07:39:04;9.23;;;2.55;;
47625;SDS011;33342;45.574;9.252;2023-07-13T07:41:31;6.60;;;2.50;;
47625;SDS011;33342;45.574;9.252;2023-07-13T07:44:01;13.38;;;3.00;;
47625;SDS011;33342;45.574;9.252;2023-07-13T07:46:30;7.82;;;3.47;;
47625;SDS011;33342;45.574;9.252;2023-07-13T07:48:57;11.05;;;5.35;;
47625;SDS011;33342;45.574;9.252;2023-07-13T07:51:24;6.15;;;2.88;;
47625;SDS011;33342;45.574;9.252;2023-07-13T07:53:52;6.20;;;2.95;;
47625;SDS011;33342;45.574;9.252;2023-07-13T07:56:20;7.65;;;3.17;;
47625;SDS011;33342;45.574;9.252;2023-07-13T07:58:51;7.63;;;3.13;;
47625;SDS011;33342;45.574;9.252;2023-07-13T08:01:21;6.22;;;2.53;;
47625;SDS011;33342;45.574;9.252;2023-07-13T08:03:51;10.98;;;2.65;;
47625;SDS011;33342;45.574;9.252;2023-07-13T08:06:21;9.10;;;2.78;;
47625;SDS011;33342;45.574;9.252;2023-07-13T08:08:52;8.50;;;2.80;;
47625;SDS011;33342;45.574;9.252;2023-07-13T08:11:20;8.48;;;2.53;;
47625;SDS011;33342;45.574;9.252;2023-07-13T08:13:51;9.82;;;2.65;;
47625;SDS011;33342;45.574;9.252;2023-07-13T08:16:21;8.82;;;2.50;;
47625;SDS011;33342;45.574;9.252;2023-07-13T08:18:49;5.93;;;2.28;;
47625;SDS011;33342;45.574;9.252;2023-07-13T08:21:16;5.00;;;2.10;;
47625;SDS011;33342;45.574;9.252;2023-07-13T08:23:46;6.80;;;2.25;;
47625;SDS011;33342;45.574;9.252;2023-07-13T08:26:13;7.88;;;2.70;;
47625;SDS011;33342;45.574;9.252;2023-07-13T08:28:41;7.90;;;2.65;;
47625;SDS011;33342;45.574;9.252;2023-07-13T08:31:08;8.30;;;3.72;;
47625;SDS011;33342;45.574;9.252;2023-07-13T08:33:37;9.45;;;3.25;;
47625;SDS011;33342;45.574;9.252;2023-07-13T08:36:05;6.38;;;2.45;;
47625;SDS011;33342;45.574;9.252;2023-07-13T08:38:32;6.07;;;2.33;;
47625;SDS011;33342;45.574;9.252;2023-07-13T08:41:01;8.68;;;2.58;;
47625;SDS011;33342;45.574;9.252;2023-07-13T08:43:36;8.85;;;2.50;;
47625;SDS011;33342;45.574;9.252;2023-07-13T08:46:14;5.43;;;2.60;;
47625;SDS011;33342;45.574;9.252;2023-07-13T08:48:57;6.47;;;2.38;;
47625;SDS011;33342;45.574;9.252;2023-07-13T08:51:39;6.55;;;2.80;;
47625;SDS011;33342;45.574;9.252;2023-07-13T08:57:15;6.53;;;2.63;;
47625;SDS011;33342;45.574;9.252;2023-07-13T08:59:45;6.60;;;2.80;;
47625;SDS011;33342;45.574;9.252;2023-07-13T09:02:20;7.13;;;2.30;;
47625;SDS011;33342;45.574;9.252;2023-07-13T09:16:00;6.97;;;2.58;;
47625;SDS011;33342;45.574;9.252;2023-07-13T09:18:31;6.38;;;2.80;;
47625;SDS011;33342;45.574;9.252;2023-07-13T09:23:36;10.63;;;3.28;;
47625;SDS011;33342;45.574;9.252;2023-07-13T09:26:20;7.55;;;3.00;;
47625;SDS011;33342;45.574;9.252;2023-07-13T09:28:54;7.28;;;2.85;;
47625;SDS011;33342;45.574;9.252;2023-07-13T09:31:42;6.45;;;2.88;;
47625;SDS011;33342;45.574;9.252;2023-07-13T09:34:12;5.80;;;3.05;;
47625;SDS011;33342;45.574;9.252;2023-07-13T09:36:39;5.60;;;2.88;;
47625;SDS011;33342;45.574;9.252;2023-07-13T09:44:42;6.32;;;2.60;;
47625;SDS011;33342;45.574;9.252;2023-07-13T09:47:23;6.82;;;2.53;;
47625;SDS011;33342;45.574;9.252;2023-07-13T09:49:57;12.25;;;9.38;;
47625;SDS011;33342;45.574;9.252;2023-07-13T09:52:43;10.82;;;4.82;;
47625;SDS011;33342;45.574;9.252;2023-07-13T09:55:29;7.97;;;3.33;;
47625;SDS011;33342;45.574;9.252;2023-07-13T09:58:19;7.10;;;3.05;;
47625;SDS011;33342;45.574;9.252;2023-07-13T10:00:55;7.80;;;3.15;;
47625;SDS011;33342;45.574;9.252;2023-07-13T10:03:29;6.63;;;3.30;;
47625;SDS011;33342;45.574;9.252;2023-07-13T10:06:12;7.28;;;3.80;;
47625;SDS011;33342;45.574;9.252;2023-07-13T10:08:41;8.43;;;3.92;;
47625;SDS011;33342;45.574;9.252;2023-07-13T10:14:10;6.97;;;3.67;;
47625;SDS011;33342;45.574;9.252;2023-07-13T10:16:39;9.93;;;3.60;;
47625;SDS011;33342;45.574;9.252;2023-07-13T10:21:55;8.23;;;3.60;;
47625;SDS011;33342;45.574;9.252;2023-07-13T10:24:31;5.97;;;2.70;;
47625;SDS011;33342;45.574;9.252;2023-07-13T10:29:35;12.18;;;3.90;;
47625;SDS011;33342;45.574;9.252;2023-07-13T10:32:11;7.65;;;4.35;;
47625;SDS011;33342;45.574;9.252;2023-07-13T10:34:40;6.82;;;3.72;;
47625;SDS011;33342;45.574;9.252;2023-07-13T10:37:15;7.28;;;3.72;;
47625;SDS011;33342;45.574;9.252;2023-07-13T10:42:15;8.88;;;4.22;;
47625;SDS011;33342;45.574;9.252;2023-07-13T10:44:53;11.35;;;4.07;;
47625;SDS011;33342;45.574;9.252;2023-07-13T10:47:21;7.03;;;4.05;;
47625;SDS011;33342;45.574;9.252;2023-07-13T10:49:50;7.10;;;3.47;;
47625;SDS011;33342;45.574;9.252;2023-07-13T10:58:01;7.70;;;3.92;;
47625;SDS011;33342;45.574;9.252;2023-07-13T11:00:30;7.65;;;3.88;;
47625;SDS011;33342;45.574;9.252;2023-07-13T11:02:59;7.22;;;3.20;;
47625;SDS011;33342;45.574;9.252;2023-07-13T11:05:31;7.50;;;3.80;;
47625;SDS011;33342;45.574;9.252;2023-07-13T11:10:52;8.30;;;4.53;;
47625;SDS011;33342;45.574;9.252;2023-07-13T11:13:55;12.85;;;5.03;;
47625;SDS011;33342;45.574;9.252;2023-07-13T11:16:42;9.63;;;4.13;;
47625;SDS011;33342;45.574;9.252;2023-07-13T11:30:09;9.32;;;4.00;;
47625;SDS011;33342;45.574;9.252;2023-07-13T11:32:50;8.57;;;3.83;;
47625;SDS011;33342;45.574;9.252;2023-07-13T11:35:23;9.05;;;5.32;;
47625;SDS011;33342;45.574;9.252;2023-07-13T11:37:52;7.97;;;5.95;;
47625;SDS011;33342;45.574;9.252;2023-07-13T11:40:21;8.75;;;4.22;;
47625;SDS011;33342;45.574;9.252;2023-07-13T11:42:52;12.65;;;3.67;;
47625;SDS011;33342;45.574;9.252;2023-07-13T11:45:20;6.13;;;3.40;;
47625;SDS011;33342;45.574;9.252;2023-07-13T11:48:01;12.27;;;4.05;;
47625;SDS011;33342;45.574;9.252;2023-07-13T11:50:28;7.68;;;3.45;;
47625;SDS011;33342;45.574;9.252;2023-07-13T11:52:57;9.68;;;3.72;;
47625;SDS011;33342;45.574;9.252;2023-07-13T11:55:25;7.18;;;3.35;;
47625;SDS011;33342;45.574;9.252;2023-07-13T11:57:56;8.50;;;3.67;;
47625;SDS011;33342;45.574;9.252;2023-07-13T12:00:26;8.45;;;3.28;;
47625;SDS011;33342;45.574;9.252;2023-07-13T12:02:59;8.65;;;4.15;;
47625;SDS011;33342;45.574;9.252;2023-07-13T12:05:28;8.32;;;4.05;;
47625;SDS011;33342;45.574;9.252;2023-07-13T12:07:58;12.85;;;4.25;;
47625;SDS011;33342;45.574;9.252;2023-07-13T12:10:29;13.68;;;4.32;;
47625;SDS011;33342;45.574;9.252;2023-07-13T12:13:03;7.60;;;3.58;;
47625;SDS011;33342;45.574;9.252;2023-07-13T12:15:38;9.00;;;4.10;;
47625;SDS011;33342;45.574;9.252;2023-07-13T12:18:18;9.05;;;3.58;;
47625;SDS011;33342;45.574;9.252;2023-07-13T12:20:47;7.55;;;3.38;;
47625;SDS011;33342;45.574;9.252;2023-07-13T12:23:25;12.35;;;3.72;;
47625;SDS011;33342;45.574;9.252;2023-07-13T12:25:57;15.05;;;5.30;;
47625;SDS011;33342;45.574;9.252;2023-07-13T12:33:59;10.95;;;4.65;;
47625;SDS011;33342;45.574;9.252;2023-07-13T12:36:29;12.70;;;5.40;;
47625;SDS011;33342;45.574;9.252;2023-07-13T12:38:59;8.65;;;4.60;;
47625;SDS011;33342;45.574;9.252;2023-07-13T12:41:30;11.23;;;4.85;;
47625;SDS011;33342;45.574;9.252;2023-07-13T12:43:59;9.75;;;4.57;;
47625;SDS011;33342;45.574;9.252;2023-07-13T12:46:26;12.50;;;4.20;;
47625;SDS011;33342;45.574;9.252;2023-07-13T12:48:56;9.77;;;4.60;;
47625;SDS011;33342;45.574;9.252;2023-07-13T12:51:43;8.77;;;4.68;;
47625;SDS011;33342;45.574;9.252;2023-07-13T12:54:13;10.77;;;4.40;;
47625;SDS011;33342;45.574;9.252;2023-07-13T12:56:43;8.52;;;4.55;;
47625;SDS011;33342;45.574;9.252;2023-07-13T12:59:18;9.25;;;4.15;;
47625;SDS011;33342;45.574;9.252;2023-07-13T13:01:47;9.20;;;4.40;;
47625;SDS011;33342;45.574;9.252;2023-07-13T13:04:16;8.82;;;4.63;;
47625;SDS011;33342;45.574;9.252;2023-07-13T13:06:48;11.30;;;4.70;;
47625;SDS011;33342;45.574;9.252;2023-07-13T13:09:27;8.77;;;4.28;;
47625;SDS011;33342;45.574;9.252;2023-07-13T13:11:54;9.07;;;4.38;;
47625;SDS011;33342;45.574;9.252;2023-07-13T13:14:21;10.45;;;4.10;;
47625;SDS011;33342;45.574;9.252;2023-07-13T13:16:49;12.23;;;4.47;;
47625;SDS011;33342;45.574;9.252;2023-07-13T13:21:48;12.02;;;4.60;;
47625;SDS011;33342;45.574;9.252;2023-07-13T13:24:20;11.80;;;4.78;;
47625;SDS011;33342;45.574;9.252;2023-07-13T13:26:48;9.70;;;4.40;;
47625;SDS011;33342;45.574;9.252;2023-07-13T13:29:21;8.98;;;4.53;;
47625;SDS011;33342;45.574;9.252;2023-07-13T13:31:56;8.43;;;4.63;;
47625;SDS011;33342;45.574;9.252;2023-07-13T13:34:24;8.75;;;4.80;;
47625;SDS011;33342;45.574;9.252;2023-07-13T13:36:52;7.65;;;4.10;;
47625;SDS011;33342;45.574;9.252;2023-07-13T13:39:27;9.15;;;4.53;;
47625;SDS011;33342;45.574;9.252;2023-07-13T13:41:58;10.88;;;5.13;;
47625;SDS011;33342;45.574;9.252;2023-07-13T13:44:25;10.40;;;4.63;;
47625;SDS011;33342;45.574;9.252;2023-07-13T13:46:53;11.90;;;5.35;;
47625;SDS011;33342;45.574;9.252;2023-07-13T13:49:23;12.35;;;5.22;;
47625;SDS011;33342;45.574;9.252;2023-07-13T13:51:52;11.57;;;4.68;;
47625;SDS011;33342;45.574;9.252;2023-07-13T13:54:21;9.60;;;4.90;;
47625;SDS011;33342;45.574;9.252;2023-07-13T13:56:50;9.68;;;4.60;;
47625;SDS011;33342;45.574;9.252;2023-07-13T13:59:23;11.50;;;5.15;;
47625;SDS011;33342;45.574;9.252;2023-07-13T14:01:50;14.10;;;5.05;;
47625;SDS011;33342;45.574;9.252;2023-07-13T14:04:18;8.80;;;4.70;;
47625;SDS011;33342;45.574;9.252;2023-07-13T14:06:48;12.48;;;5.40;;
47625;SDS011;33342;45.574;9.252;2023-07-13T14:09:17;9.75;;;4.63;;
47625;SDS011;33342;45.574;9.252;2023-07-13T14:11:46;10.93;;;4.65;;
47625;SDS011;33342;45.574;9.252;2023-07-13T14:14:18;12.52;;;5.13;;
47625;SDS011;33342;45.574;9.252;2023-07-13T14:16:48;12.10;;;4.93;;
47625;SDS011;33342;45.574;9.252;2023-07-13T14:19:20;11.85;;;5.07;;
47625;SDS011;33342;45.574;9.252;2023-07-13T14:21:48;11.27;;;5.22;;
47625;SDS011;33342;45.574;9.252;2023-07-13T14:24:16;10.23;;;4.97;;
47625;SDS011;33342;45.574;9.252;2023-07-13T14:26:45;11.73;;;4.63;;
47625;SDS011;33342;45.574;9.252;2023-07-13T14:29:14;7.93;;;4.82;;
47625;SDS011;33342;45.574;9.252;2023-07-13T14:31:52;7.93;;;4.75;;
47625;SDS011;33342;45.574;9.252;2023-07-13T14:34:19;8.95;;;3.90;;
47625;SDS011;33342;45.574;9.252;2023-07-13T14:36:47;11.50;;;4.78;;
47625;SDS011;33342;45.574;9.252;2023-07-13T14:39:20;12.32;;;4.68;;
47625;SDS011;33342;45.574;9.252;2023-07-13T14:41:51;11.05;;;4.75;;
47625;SDS011;33342;45.574;9.252;2023-07-13T14:44:21;10.88;;;5.00;;
47625;SDS011;33342;45.574;9.252;2023-07-13T14:46:51;8.57;;;4.35;;
47625;SDS011;33342;45.574;9.252;2023-07-13T14:49:29;13.27;;;4.53;;
47625;SDS011;33342;45.574;9.252;2023-07-13T14:52:12;10.10;;;4.45;;
47625;SDS011;33342;45.574;9.252;2023-07-13T14:54:43;10.68;;;4.68;;
47625;SDS011;33342;45.574;9.252;2023-07-13T14:57:13;8.68;;;4.28;;
47625;SDS011;33342;45.574;9.252;2023-07-13T14:59:42;9.77;;;5.05;;
47625;SDS011;33342;45.574;9.252;2023-07-13T15:04:44;8.23;;;4.57;;
47625;SDS011;33342;45.574;9.252;2023-07-13T15:07:11;7.75;;;4.00;;
47625;SDS011;33342;45.574;9.252;2023-07-13T15:09:42;8.50;;;4.53;;
47625;SDS011;33342;45.574;9.252;2023-07-13T15:12:09;10.40;;;4.25;;
47625;SDS011;33342;45.574;9.252;2023-07-13T15:14:36;8.90;;;4.30;;
47625;SDS011;33342;45.574;9.252;2023-07-13T15:17:05;9.02;;;4.07;;
47625;SDS011;33342;45.574;9.252;2023-07-13T15:22:07;11.93;;;4.70;;
47625;SDS011;33342;45.574;9.252;2023-07-13T15:24:35;8.77;;;4.50;;
47625;SDS011;33342;45.574;9.252;2023-07-13T15:27:04;10.65;;;4.43;;
47625;SDS011;33342;45.574;9.252;2023-07-13T15:29:36;8.02;;;4.53;;
47625;SDS011;33342;45.574;9.252;2023-07-13T15:32:04;8.93;;;4.13;;
47625;SDS011;33342;45.574;9.252;2023-07-13T15:34:36;8.75;;;4.30;;
47625;SDS011;33342;45.574;9.252;2023-07-13T15:37:04;9.75;;;4.43;;
47625;SDS011;33342;45.574;9.252;2023-07-13T15:39:38;10.55;;;4.55;;
47625;SDS011;33342;45.574;9.252;2023-07-13T15:42:05;13.10;;;4.00;;
47625;SDS011;33342;45.574;9.252;2023-07-13T15:44:35;9.27;;;4.13;;
47625;SDS011;33342;45.574;9.252;2023-07-13T15:47:04;8.43;;;4.60;;
47625;SDS011;33342;45.574;9.252;2023-07-13T15:49:31;7.72;;;4.22;;
47625;SDS011;33342;45.574;9.252;2023-07-13T15:51:58;10.02;;;3.88;;
47625;SDS011;33342;45.574;9.252;2023-07-13T15:54:25;8.15;;;3.90;;
47625;SDS011;33342;45.574;9.252;2023-07-13T15:56:53;10.10;;;3.65;;
47625;SDS011;33342;45.574;9.252;2023-07-13T15:59:22;9.95;;;3.72;;
47625;SDS011;33342;45.574;9.252;2023-07-13T16:01:50;8.13;;;3.80;;
47625;SDS011;33342;45.574;9.252;2023-07-13T16:04:17;10.82;;;3.88;;
47625;SDS011;33342;45.574;9.252;2023-07-13T16:06:46;9.75;;;4.22;;